Airfield :
LOGIN :

Register | Disclaimer

   EN    FR    IT 

 










Legend :    VFR   Marginal VFR   IFR   Intensive IFR   Very Intensive IFR
Visi :
Ceiling :
>= 8 km
>= 3000ft
5 to 8 km
1000 to 3000 ft
1500m to 5 km
500 to 1000 ft
800 to 1500m
200 to 500 ft
< 800m
< 200 ft
Symbols :   Thunderstorms  Fog  Heavy snow  Heavy precipitations  Wind > 20 kt
SIGMETs :     Misc.  Thunderstorms  Icing  Turbulence  Mountain Waves  Volcanic Ashes







- Airport Elevation : 17 ft
- IATA code : CPH


EKCH - København - Kastrup (Copenhagen)

CURRENT METAR :
  • 200650Z AUTO 22009KT 9999 FEW085/// BKN120/// 19/17 Q1006 NOSIG

EXPIRED METARs :
  • 200620Z AUTO 23009KT 9999 FEW091/// OVC110/// 19/17 Q1007 NOSIG
  • 200550Z AUTO 22006KT 9999 BKN094/// 19/17 Q1006 NOSIG
  • 200520Z AUTO 23005KT 9999 BKN130/// 19/17 Q1006 NOSIG
  • 200450Z AUTO 21003KT 9999 SCT130/// 18/16 Q1006 NOSIG
  • 200420Z AUTO 22004KT 9999 NCD 17/16 Q1006 NOSIG

TAF TAF EKCH
Valid from the 20 at 06:00 until the 21 at 06:00 UTC


200506Z 2006/2106 20008KT 9999 SCT030
TEMPO 2009/2015 SHRA SCT040CB
No reported NOTAMs for that airfield.



MET'MAP, your aeronautical weather chart ! - Copyright ORBIFLY December 2007 - Disclaimer

ORBIFLY MET'MAP TEAM :

Programming & Development : Alexandra Zaïnal
Concept & Development : Baudouin d'Aumeries
Co-Development & Prog : Marc-Olivier Méhu
Technical & hardware support : Manuel Goepfert

Contact : metmap@orbifly.com




SOURCES & CREDITS :

   NOAA